createdAt,value
2023-05-16T00:00:57.745Z,158.93
2023-05-16T00:01:57.815Z,158.11
2023-05-16T00:02:57.857Z,158.82
2023-05-16T00:03:57.932Z,157.78
2023-05-16T00:04:57.875Z,158.82
2023-05-16T00:05:57.916Z,158.87
2023-05-16T00:06:57.938Z,159.73
2023-05-16T00:07:58.002Z,160.15
2023-05-16T00:08:58.001Z,159.27
2023-05-16T00:09:58.061Z,159.27
2023-05-16T00:10:58.107Z,159.50
2023-05-16T00:11:58.128Z,160.18
2023-05-16T00:12:58.152Z,159.09
2023-05-16T00:13:58.190Z,159.72
2023-05-16T00:14:58.231Z,159.01
2023-05-16T00:15:58.251Z,159.35
2023-05-16T00:16:58.325Z,159.11
2023-05-16T00:17:58.428Z,160.42
2023-05-16T00:18:58.385Z,160.63
2023-05-16T00:19:58.392Z,160.86
2023-05-16T00:20:58.411Z,160.51
2023-05-16T00:21:58.449Z,160.41
2023-05-16T00:22:58.487Z,160.77
2023-05-16T00:23:58.554Z,160.32
2023-05-16T00:24:58.601Z,160.65
2023-05-16T00:25:58.647Z,161.84
2023-05-16T00:26:58.669Z,161.42
2023-05-16T00:27:58.722Z,161.53
2023-05-16T00:28:58.779Z,161.23
2023-05-16T00:29:58.827Z,161.26
2023-05-16T00:30:58.836Z,161.15
2023-05-16T00:31:58.911Z,161.63
2023-05-16T00:32:58.948Z,161.31
2023-05-16T00:33:58.945Z,162.04
2023-05-16T00:34:58.953Z,161.31
2023-05-16T00:35:58.994Z,161.71
2023-05-16T00:36:59.029Z,162.07
2023-05-16T00:37:59.049Z,162.33
2023-05-16T00:38:59.091Z,162.53
2023-05-16T00:39:59.135Z,163.66
2023-05-16T00:40:59.193Z,164.11
2023-05-16T00:41:59.204Z,163.17
2023-05-16T00:42:59.255Z,164.12
2023-05-16T00:43:59.276Z,165.11
2023-05-16T00:44:59.301Z,164.09
2023-05-16T00:45:59.349Z,164.60
2023-05-16T00:46:59.337Z,164.87
2023-05-16T00:47:59.508Z,165.44
2023-05-16T00:48:59.353Z,164.58
2023-05-16T00:49:59.376Z,164.83
2023-05-16T00:50:59.397Z,165.19
2023-05-16T00:51:59.424Z,163.70
2023-05-16T00:52:59.458Z,165.71
2023-05-16T00:53:59.459Z,164.48
2023-05-16T00:54:59.500Z,165.51
2023-05-16T00:55:59.518Z,164.83
2023-05-16T00:56:59.551Z,165.12
2023-05-16T00:57:59.555Z,165.86
2023-05-16T00:58:59.589Z,164.93
2023-05-16T00:59:59.626Z,164.89
2023-05-16T01:00:59.692Z,164.79
2023-05-16T01:01:59.954Z,165.19
2023-05-16T01:02:59.872Z,165.04
2023-05-16T01:04:00.014Z,165.15
2023-05-16T01:04:59.846Z,164.99
2023-05-16T01:05:59.911Z,164.91
2023-05-16T01:06:59.939Z,164.89
2023-05-16T01:07:59.993Z,163.71
2023-05-16T01:09:00.026Z,164.85
2023-05-16T01:10:00.092Z,162.94
2023-05-16T01:11:00.169Z,164.29
2023-05-16T01:12:00.180Z,164.56
2023-05-16T01:13:00.176Z,165.15
2023-05-16T01:14:00.208Z,165.32
2023-05-16T01:15:00.220Z,165.38
2023-05-16T01:16:00.272Z,165.02
2023-05-16T01:17:00.247Z,162.49
2023-05-16T01:18:00.324Z,162.39
2023-05-16T01:19:00.350Z,162.89
2023-05-16T01:20:00.321Z,162.35
2023-05-16T01:21:00.352Z,161.17
2023-05-16T01:22:00.408Z,162.25
2023-05-16T01:23:00.476Z,161.21
2023-05-16T01:24:00.540Z,161.21
2023-05-16T01:25:00.569Z,160.90
2023-05-16T01:26:00.586Z,160.55
2023-05-16T01:27:00.583Z,160.75
2023-05-16T01:28:00.606Z,160.30
2023-05-16T01:29:00.610Z,160.50
2023-05-16T01:30:00.633Z,159.67
2023-05-16T01:31:00.734Z,159.38
2023-05-16T01:32:00.743Z,159.61
2023-05-16T01:33:00.727Z,159.47
2023-05-16T01:34:00.732Z,159.38
2023-05-16T01:35:00.739Z,160.07
2023-05-16T01:36:00.792Z,160.97
2023-05-16T01:37:00.850Z,160.78
2023-05-16T01:38:00.893Z,161.11
2023-05-16T01:39:00.931Z,162.91
2023-05-16T01:40:00.939Z,162.17
2023-05-16T01:41:01.059Z,163.12
2023-05-16T01:42:01.039Z,164.16
2023-05-16T01:43:01.087Z,164.53
2023-05-16T01:44:01.141Z,164.71
2023-05-16T01:45:01.186Z,165.43
2023-05-16T01:46:01.225Z,164.86
2023-05-16T01:47:01.231Z,164.34
2023-05-16T01:48:01.279Z,165.13
2023-05-16T01:49:01.247Z,165.18
2023-05-16T01:50:01.289Z,164.41
2023-05-16T01:51:01.331Z,165.43
2023-05-16T01:52:01.332Z,165.45
2023-05-16T01:53:01.321Z,165.99
2023-05-16T01:54:01.400Z,166.04
2023-05-16T01:55:01.395Z,166.20
2023-05-16T01:56:01.407Z,166.41
2023-05-16T01:57:01.421Z,166.79
2023-05-16T01:58:01.490Z,166.90
2023-05-16T01:59:01.445Z,166.23
2023-05-16T02:00:01.476Z,166.50
2023-05-16T02:01:01.510Z,165.74
2023-05-16T02:02:01.531Z,166.56
2023-05-16T02:03:01.562Z,167.02
2023-05-16T02:04:01.659Z,166.83
2023-05-16T02:05:01.551Z,167.11
2023-05-16T02:06:01.569Z,167.14
2023-05-16T02:07:01.561Z,165.85
2023-05-16T02:08:01.593Z,167.44
2023-05-16T02:09:01.591Z,168.01
2023-05-16T02:10:01.608Z,168.03
2023-05-16T02:11:01.602Z,168.50
2023-05-16T02:12:01.641Z,169.30
2023-05-16T02:13:01.629Z,168.75
2023-05-16T02:14:01.651Z,168.51
2023-05-16T02:15:01.648Z,168.06
2023-05-16T02:16:01.683Z,169.27
2023-05-16T02:17:01.810Z,168.02
2023-05-16T02:18:01.759Z,168.27
2023-05-16T02:19:01.858Z,169.04
2023-05-16T02:20:01.780Z,168.26
2023-05-16T02:21:01.783Z,167.64
2023-05-16T02:22:01.773Z,166.97
2023-05-16T02:23:01.804Z,165.91
2023-05-16T02:24:01.818Z,166.20
2023-05-16T02:25:01.809Z,166.48
2023-05-16T02:26:01.819Z,167.22
2023-05-16T02:27:01.870Z,166.96
2023-05-16T02:28:01.858Z,166.50
2023-05-16T02:29:01.838Z,167.57
2023-05-16T02:30:01.866Z,167.56
2023-05-16T02:31:01.974Z,166.94
2023-05-16T02:32:01.898Z,166.52
2023-05-16T02:33:01.936Z,167.10
2023-05-16T02:34:01.877Z,167.49
2023-05-16T02:35:01.887Z,167.67
2023-05-16T02:36:01.897Z,167.37
2023-05-16T02:37:01.914Z,168.68
2023-05-16T02:38:01.955Z,169.07
2023-05-16T02:39:02.003Z,170.44
2023-05-16T02:40:02.048Z,170.16
2023-05-16T02:41:02.056Z,170.79
2023-05-16T02:42:02.102Z,171.46
2023-05-16T02:43:02.176Z,170.45
2023-05-16T02:44:02.234Z,169.41
2023-05-16T02:45:02.273Z,170.69
2023-05-16T02:46:02.355Z,169.34
2023-05-16T02:47:02.369Z,168.84
2023-05-16T02:48:02.445Z,169.91
2023-05-16T02:49:02.509Z,169.38
2023-05-16T02:50:02.521Z,169.00
2023-05-16T02:51:02.539Z,168.26
2023-05-16T02:52:02.558Z,169.09
2023-05-16T02:53:02.578Z,168.92
2023-05-16T02:54:02.556Z,168.33
2023-05-16T02:56:02.558Z,170.28
2023-05-16T02:57:02.565Z,168.95
2023-05-16T02:58:02.537Z,168.72
2023-05-16T02:59:02.553Z,168.87
2023-05-16T03:00:02.522Z,168.94
2023-05-16T03:01:02.523Z,169.70
2023-05-16T03:02:02.639Z,168.67
2023-05-16T03:03:02.671Z,166.97
2023-05-16T03:04:02.661Z,167.93
2023-05-16T03:05:02.510Z,165.81
2023-05-16T03:06:02.481Z,165.87
2023-05-16T03:07:02.484Z,165.47
2023-05-16T03:08:02.485Z,165.75
2023-05-16T03:09:02.465Z,166.02
2023-05-16T03:10:02.466Z,165.08
2023-05-16T03:11:02.500Z,165.09
2023-05-16T03:12:02.452Z,164.68
2023-05-16T03:13:02.432Z,166.39
2023-05-16T03:14:02.440Z,166.63
2023-05-16T03:15:02.446Z,167.71
2023-05-16T03:16:02.483Z,167.57
2023-05-16T03:17:02.404Z,168.68
2023-05-16T03:18:02.453Z,169.13
2023-05-16T03:19:02.422Z,170.73
2023-05-16T03:20:02.394Z,170.28
2023-05-16T03:21:02.395Z,170.77
2023-05-16T03:22:02.392Z,169.98
2023-05-16T03:23:02.391Z,169.44
2023-05-16T03:24:02.453Z,169.71
2023-05-16T03:25:02.374Z,169.19
2023-05-16T03:26:02.363Z,169.35
2023-05-16T03:27:02.339Z,168.93
2023-05-16T03:28:02.352Z,168.95
2023-05-16T03:29:02.356Z,169.86
2023-05-16T03:30:02.341Z,170.25
2023-05-16T03:31:02.333Z,170.29
2023-05-16T03:32:02.371Z,170.48
2023-05-16T03:33:02.462Z,170.80
2023-05-16T03:34:02.304Z,170.35
2023-05-16T03:35:02.284Z,170.79
2023-05-16T03:36:02.292Z,170.99
2023-05-16T03:37:02.290Z,171.26
2023-05-16T03:38:02.265Z,171.88
2023-05-16T03:39:02.278Z,172.62
2023-05-16T03:40:02.285Z,172.85
2023-05-16T03:41:02.255Z,173.48
2023-05-16T03:42:02.254Z,173.40
2023-05-16T03:43:02.239Z,173.48
2023-05-16T03:44:02.235Z,173.15
2023-05-16T03:45:02.225Z,173.51
2023-05-16T03:46:02.242Z,172.80
2023-05-16T03:47:02.224Z,174.28
2023-05-16T03:48:02.255Z,174.57
2023-05-16T03:49:02.212Z,173.99
2023-05-16T03:50:02.179Z,173.94
2023-05-16T03:51:02.176Z,173.95
2023-05-16T03:52:02.181Z,173.76
2023-05-16T03:53:02.164Z,173.07
2023-05-16T03:54:02.174Z,172.64
2023-05-16T03:55:02.170Z,172.70
2023-05-16T03:56:02.175Z,173.41
2023-05-16T03:57:02.145Z,173.41
2023-05-16T03:58:02.147Z,174.48
2023-05-16T03:59:02.121Z,174.48
2023-05-16T04:00:02.129Z,174.06
2023-05-16T04:01:02.125Z,174.93
2023-05-16T04:02:02.196Z,174.66
2023-05-16T04:03:02.153Z,174.05
2023-05-16T04:04:02.089Z,173.83
2023-05-16T04:05:02.082Z,172.73
2023-05-16T04:06:02.133Z,172.30
2023-05-16T04:07:02.093Z,174.04
2023-05-16T04:08:02.078Z,173.59
2023-05-16T04:09:02.076Z,173.31
2023-05-16T04:10:02.127Z,172.66
2023-05-16T04:11:02.111Z,170.82
2023-05-16T04:12:02.209Z,169.96
2023-05-16T04:13:02.154Z,169.29
2023-05-16T04:14:02.311Z,170.46
2023-05-16T04:15:02.250Z,168.55
2023-05-16T04:16:02.323Z,169.66
2023-05-16T04:17:02.403Z,171.34
2023-05-16T04:18:02.425Z,172.67
2023-05-16T04:19:02.474Z,173.28
2023-05-16T04:20:02.445Z,172.97
2023-05-16T04:21:02.476Z,175.03
2023-05-16T04:22:02.544Z,174.35
2023-05-16T04:23:02.584Z,174.66
2023-05-16T04:24:03.635Z,174.09
2023-05-16T04:25:02.657Z,173.74
2023-05-16T04:26:02.708Z,174.31
2023-05-16T04:27:02.731Z,174.50
2023-05-16T04:28:02.735Z,174.08
2023-05-16T04:29:02.759Z,174.36
2023-05-16T04:30:02.769Z,173.76
2023-05-16T04:31:54.725Z,25.00
2023-05-16T04:32:54.667Z,25.00
2023-05-16T04:33:54.597Z,25.00
2023-05-16T04:34:54.591Z,25.00
2023-05-16T04:35:54.612Z,25.00
2023-05-16T04:36:54.594Z,25.00
2023-05-16T04:37:54.586Z,25.84
2023-05-16T04:38:54.585Z,27.83
2023-05-16T04:39:54.560Z,26.37
2023-05-16T04:40:54.568Z,27.04
2023-05-16T04:41:54.554Z,28.37
2023-05-16T04:42:54.553Z,25.00
2023-05-16T04:43:54.530Z,27.48
2023-05-16T04:44:54.541Z,26.95
2023-05-16T04:45:54.600Z,26.59
2023-05-16T04:46:54.570Z,32.34
2023-05-16T04:47:54.535Z,31.90
2023-05-16T04:48:54.508Z,29.76
2023-05-16T04:49:54.499Z,28.23
2023-05-16T04:50:54.487Z,29.06
2023-05-16T04:51:54.482Z,29.58
2023-05-16T04:52:56.419Z,28.59
2023-05-16T04:53:54.466Z,30.26
2023-05-16T04:54:54.451Z,29.47
2023-05-16T04:55:54.449Z,27.94
2023-05-16T04:56:54.436Z,27.05
2023-05-16T04:57:54.450Z,27.48
2023-05-16T04:58:54.451Z,31.87
2023-05-16T04:59:54.439Z,28.09
2023-05-16T05:00:54.467Z,25.87
2023-05-16T05:01:54.522Z,26.62
2023-05-16T05:02:54.518Z,31.11
2023-05-16T05:03:54.387Z,30.65
2023-05-16T05:04:54.418Z,30.65
2023-05-16T05:05:54.430Z,26.69
2023-05-16T05:06:54.382Z,30.09
2023-05-16T05:07:54.380Z,26.32
2023-05-16T05:08:54.363Z,31.42
2023-05-16T05:09:54.357Z,33.97
2023-05-16T05:10:54.349Z,32.16
2023-05-16T05:11:54.343Z,35.79
2023-05-16T05:12:54.327Z,38.64
2023-05-16T05:13:54.328Z,36.86
2023-05-16T05:14:54.358Z,41.38
2023-05-16T05:15:54.353Z,40.95
2023-05-16T05:16:54.351Z,41.99
2023-05-16T05:17:54.441Z,41.46
2023-05-16T05:18:54.462Z,46.10
2023-05-16T05:19:54.359Z,42.07
2023-05-16T05:20:54.368Z,42.89
2023-05-16T05:21:54.373Z,40.66
2023-05-16T05:22:54.354Z,42.25
2023-05-16T05:23:54.400Z,34.73
2023-05-16T05:24:54.388Z,39.69
2023-05-16T05:25:54.380Z,42.06
2023-05-16T05:26:54.381Z,39.70
2023-05-16T05:27:54.413Z,42.81
2023-05-16T05:29:04.684Z,56.75
2023-05-16T05:29:55.434Z,57.21
2023-05-16T05:30:54.422Z,59.49
2023-05-16T05:31:54.476Z,66.65
2023-05-16T05:32:54.449Z,79.42
2023-05-16T05:33:54.412Z,105.13
2023-05-16T05:34:54.385Z,114.22
2023-05-16T05:35:54.827Z,125.85
2023-05-16T05:36:54.415Z,140.14
2023-05-16T05:37:54.382Z,150.88
2023-05-16T05:38:54.380Z,154.54
2023-05-16T05:39:54.358Z,158.19
2023-05-16T05:40:54.835Z,175.21
2023-05-16T05:41:54.385Z,188.24
2023-05-16T05:42:54.384Z,200.31
2023-05-16T05:43:54.438Z,261.70
2023-05-16T05:44:54.503Z,247.29
2023-05-16T05:45:54.848Z,238.67
2023-05-16T05:46:54.568Z,238.28
2023-05-16T05:47:54.633Z,236.84
2023-05-16T05:48:54.616Z,240.71
2023-05-16T05:49:54.648Z,237.87
2023-05-16T05:50:54.863Z,238.55
2023-05-16T05:51:54.699Z,239.23
2023-05-16T05:52:54.741Z,241.97
2023-05-16T05:53:54.863Z,246.34
2023-05-16T05:54:54.762Z,251.65
2023-05-16T05:55:54.795Z,253.39
2023-05-16T05:56:54.781Z,245.58
2023-05-16T05:57:54.781Z,248.59
2023-05-16T05:58:54.810Z,248.78
2023-05-16T05:59:54.875Z,248.47
2023-05-16T06:00:54.870Z,250.00
2023-05-16T06:01:54.922Z,247.65
2023-05-16T06:02:55.157Z,248.06
2023-05-16T06:03:54.921Z,244.28
2023-05-16T06:04:55.027Z,245.67
2023-05-16T06:05:55.084Z,249.58
2023-05-16T06:06:55.192Z,248.63
2023-05-16T06:07:55.086Z,246.26
2023-05-16T06:08:55.136Z,246.61
2023-05-16T06:09:55.169Z,248.99
2023-05-16T06:10:55.364Z,249.37
2023-05-16T06:11:55.200Z,248.10
2023-05-16T06:12:55.219Z,249.37
2023-05-16T06:13:55.343Z,249.55
2023-05-16T06:14:55.421Z,247.72
2023-05-16T06:15:55.362Z,246.94
2023-05-16T06:16:55.438Z,248.66
2023-05-16T06:17:55.592Z,246.50
2023-05-16T06:18:55.511Z,247.16
2023-05-16T06:19:55.449Z,247.06
2023-05-16T06:20:55.464Z,249.10
2023-05-16T06:21:55.485Z,248.22
2023-05-16T06:22:55.491Z,245.21
2023-05-16T06:23:55.500Z,248.34
2023-05-16T06:24:55.499Z,245.93
2023-05-16T06:25:55.495Z,247.85
2023-05-16T06:26:55.522Z,247.81
2023-05-16T06:27:55.554Z,249.86
2023-05-16T06:28:55.630Z,250.00
2023-05-16T06:29:55.643Z,248.54
2023-05-16T06:30:55.900Z,248.15
2023-05-16T06:31:55.764Z,245.54
2023-05-16T06:32:55.777Z,247.60
2023-05-16T06:33:55.754Z,233.05
2023-05-16T06:34:55.745Z,224.35
2023-05-16T06:35:55.862Z,217.31
2023-05-16T06:36:55.839Z,216.89
2023-05-16T06:37:55.880Z,222.53
2023-05-16T06:38:55.937Z,226.51
2023-05-16T06:39:55.972Z,227.52
2023-05-16T06:40:56.359Z,232.18
2023-05-16T06:41:56.747Z,233.39
2023-05-16T06:42:56.015Z,235.54
2023-05-16T06:43:56.097Z,236.95
2023-05-16T06:44:56.110Z,243.62
2023-05-16T06:45:56.168Z,245.97
2023-05-16T06:46:56.223Z,244.01
2023-05-16T06:47:57.386Z,245.18
2023-05-16T06:48:56.283Z,250.13
2023-05-16T06:49:56.313Z,250.00
2023-05-16T06:50:56.380Z,249.99
2023-05-16T06:51:56.377Z,247.84
2023-05-16T06:52:56.409Z,247.56
2023-05-16T06:53:56.462Z,249.77
2023-05-16T06:54:56.452Z,249.70
2023-05-16T06:55:56.464Z,249.70
2023-05-16T06:56:56.496Z,247.74
2023-05-16T06:57:56.536Z,249.56
2023-05-16T06:58:56.575Z,248.24
2023-05-16T06:59:56.619Z,248.78
2023-05-16T07:00:56.669Z,246.48
2023-05-16T07:01:56.689Z,245.19
2023-05-16T07:02:56.797Z,248.67
2023-05-16T07:03:56.968Z,248.20
2023-05-16T07:04:56.736Z,243.65
2023-05-16T07:05:56.796Z,236.81
2023-05-16T07:06:56.841Z,235.36
2023-05-16T07:07:56.850Z,230.97
2023-05-16T07:08:56.867Z,226.41
2023-05-16T07:09:56.887Z,223.92
2023-05-16T07:10:57.411Z,219.63
2023-05-16T07:11:56.959Z,211.23
2023-05-16T07:12:57.018Z,209.12
2023-05-16T07:13:57.086Z,205.11
2023-05-16T07:14:57.143Z,207.08
2023-05-16T07:15:57.228Z,209.95
2023-05-16T07:16:57.256Z,204.55
2023-05-16T07:17:57.472Z,203.57
2023-05-16T07:18:57.450Z,197.52
2023-05-16T07:19:57.393Z,197.98
2023-05-16T07:20:57.889Z,191.41
2023-05-16T07:21:57.445Z,177.91
2023-05-16T07:22:57.536Z,182.32
2023-05-16T07:23:57.488Z,182.31
2023-05-16T07:24:57.486Z,184.90
2023-05-16T07:25:57.888Z,184.14
2023-05-16T07:26:57.551Z,170.47
2023-05-16T07:27:57.598Z,162.09
2023-05-16T07:28:57.633Z,164.45
2023-05-16T07:29:57.671Z,154.43
2023-05-16T07:30:57.716Z,148.39
2023-05-16T07:31:57.808Z,145.75
2023-05-16T07:32:57.874Z,129.36
2023-05-16T07:33:58.133Z,118.25
2023-05-16T07:34:57.863Z,118.44
2023-05-16T07:36:14.844Z,113.53
2023-05-16T07:36:58.909Z,108.78
2023-05-16T07:37:57.937Z,101.46
2023-05-16T07:38:58.395Z,102.59
2023-05-16T07:39:57.876Z,104.24
2023-05-16T07:40:58.443Z,108.70
2023-05-16T07:41:57.867Z,111.54
2023-05-16T07:42:57.909Z,114.69
2023-05-16T07:43:57.870Z,116.87
2023-05-16T07:44:57.844Z,117.35
2023-05-16T07:45:57.891Z,120.68
2023-05-16T07:46:57.816Z,118.08
2023-05-16T07:47:57.870Z,120.30
2023-05-16T07:48:57.810Z,121.76
2023-05-16T07:49:57.808Z,122.97
2023-05-16T07:50:57.827Z,117.71
2023-05-16T07:51:57.823Z,120.76
2023-05-16T07:52:57.816Z,124.44
2023-05-16T07:53:57.798Z,123.98
2023-05-16T07:54:57.810Z,125.92
2023-05-16T07:55:57.868Z,125.75
2023-05-16T07:56:57.851Z,126.26
2023-05-16T07:57:57.877Z,124.21
2023-05-16T07:58:57.909Z,123.60
2023-05-16T07:59:57.907Z,122.79
2023-05-16T08:00:57.947Z,124.09
2023-05-16T08:01:57.971Z,122.36
2023-05-16T08:02:58.061Z,123.54
2023-05-16T08:03:58.086Z,121.24
2023-05-16T08:04:58.072Z,121.19
2023-05-16T08:05:58.197Z,122.03
2023-05-16T08:06:58.127Z,121.73
2023-05-16T08:07:58.142Z,120.34
2023-05-16T08:08:58.186Z,116.93
2023-05-16T08:09:58.231Z,117.06
2023-05-16T08:10:58.221Z,114.33
2023-05-16T08:11:58.222Z,116.55
2023-05-16T08:12:58.246Z,115.09
2023-05-16T08:13:58.276Z,114.12
2023-05-16T08:14:58.313Z,114.18
2023-05-16T08:15:58.449Z,115.41
2023-05-16T08:16:58.427Z,111.56
2023-05-16T08:17:58.647Z,109.32
2023-05-16T08:18:58.545Z,104.92
2023-05-16T08:19:58.546Z,108.17
2023-05-16T08:20:58.890Z,107.58
2023-05-16T08:21:58.625Z,115.65
2023-05-16T08:22:58.630Z,116.93
2023-05-16T08:23:58.698Z,123.45
2023-05-16T08:24:58.699Z,124.33
2023-05-16T08:25:58.757Z,132.54
2023-05-16T08:26:58.752Z,138.65
2023-05-16T08:27:58.792Z,137.35
2023-05-16T08:28:58.833Z,152.53
2023-05-16T08:29:58.821Z,157.45
2023-05-16T08:30:58.877Z,173.00
2023-05-16T08:31:59.142Z,175.28
2023-05-16T08:32:58.940Z,181.41
2023-05-16T08:33:58.935Z,183.68
2023-05-16T08:34:58.976Z,187.58
2023-05-16T08:35:59.426Z,188.56
2023-05-16T08:36:59.450Z,189.83
2023-05-16T08:37:59.157Z,195.74
2023-05-16T08:38:59.105Z,194.04
2023-05-16T08:39:59.126Z,182.13
2023-05-16T08:40:59.405Z,162.67
2023-05-16T08:41:59.212Z,144.81
2023-05-16T08:42:59.237Z,136.75
2023-05-16T08:43:59.263Z,135.71
2023-05-16T08:44:59.288Z,130.94
2023-05-16T08:45:59.421Z,123.09
2023-05-16T08:46:59.339Z,122.96
2023-05-16T08:47:59.419Z,126.02
2023-05-16T08:48:59.327Z,124.70
2023-05-16T08:49:59.366Z,119.94
2023-05-16T08:50:59.418Z,120.21
2023-05-16T08:51:59.418Z,101.84
2023-05-16T08:52:59.481Z,81.59
2023-05-16T08:53:59.505Z,74.84
2023-05-16T08:55:10.339Z,68.21
2023-05-16T08:56:00.934Z,60.24
2023-05-16T08:56:59.511Z,53.16
2023-05-16T08:57:59.509Z,50.57
2023-05-16T08:58:59.501Z,38.78
2023-05-16T08:59:59.493Z,35.16
2023-05-16T09:00:59.976Z,46.48
2023-05-16T09:01:59.494Z,50.94
2023-05-16T09:02:59.486Z,55.22
2023-05-16T09:03:59.472Z,48.13
2023-05-16T09:04:59.447Z,48.82
2023-05-16T09:05:59.943Z,57.29
2023-05-16T09:06:59.440Z,83.51
2023-05-16T09:07:59.446Z,75.09
2023-05-16T09:08:59.412Z,56.04
2023-05-16T09:09:59.448Z,64.61
2023-05-16T09:10:59.456Z,56.61
2023-05-16T09:11:59.405Z,50.89
2023-05-16T09:12:59.415Z,54.99
2023-05-16T09:13:59.431Z,50.95
2023-05-16T09:14:59.477Z,38.31
2023-05-16T09:15:59.928Z,50.88
2023-05-16T09:16:59.520Z,50.96
2023-05-16T09:17:59.801Z,58.40
2023-05-16T09:18:59.637Z,71.14
2023-05-16T09:19:59.628Z,65.86
2023-05-16T09:20:59.661Z,64.79
2023-05-16T09:21:59.918Z,81.59
2023-05-16T09:22:59.683Z,79.12
2023-05-16T09:23:59.725Z,65.08
2023-05-16T09:24:59.794Z,75.70
2023-05-16T09:25:59.983Z,80.21
2023-05-16T09:26:59.881Z,80.43
2023-05-16T09:27:59.926Z,85.99
2023-05-16T09:28:59.951Z,95.64
2023-05-16T09:29:59.999Z,102.61
2023-05-16T09:31:00.461Z,102.21
2023-05-16T09:32:00.438Z,114.95
2023-05-16T09:33:00.265Z,130.91
2023-05-16T09:34:00.191Z,143.37
2023-05-16T09:35:00.227Z,151.02
2023-05-16T09:36:00.294Z,133.14
2023-05-16T09:37:00.486Z,96.83
2023-05-16T09:38:00.530Z,56.12
2023-05-16T09:39:00.318Z,20.00
2023-05-16T09:40:00.385Z,20.66
2023-05-16T09:41:00.398Z,23.27
2023-05-16T09:42:00.431Z,19.95
2023-05-16T09:43:00.492Z,19.81
2023-05-16T09:44:00.509Z,23.11
2023-05-16T09:45:03.445Z,26.91
2023-05-16T09:46:00.907Z,35.34
2023-05-16T09:47:00.522Z,36.18
2023-05-16T09:48:00.565Z,44.38
2023-05-16T09:49:00.525Z,45.62
2023-05-16T09:50:00.513Z,39.90
2023-05-16T09:51:02.780Z,32.11
2023-05-16T09:52:01.008Z,31.90
2023-05-16T09:53:00.460Z,32.12
2023-05-16T09:54:00.588Z,29.77
2023-05-16T09:55:00.570Z,33.19
2023-05-16T09:56:00.571Z,36.83
2023-05-16T09:57:02.836Z,42.17
2023-05-16T09:58:00.816Z,51.96
2023-05-16T09:59:00.844Z,56.74
2023-05-16T10:00:00.904Z,54.36
2023-05-16T10:01:00.925Z,49.72
2023-05-16T10:02:01.011Z,50.54
2023-05-16T10:03:04.004Z,54.10
2023-05-16T10:04:01.027Z,62.39
2023-05-16T10:05:00.972Z,62.73
2023-05-16T10:06:00.985Z,68.65
2023-05-16T10:07:00.941Z,74.39
2023-05-16T10:08:00.948Z,78.38
2023-05-16T10:09:02.929Z,75.27
2023-05-16T10:10:00.921Z,75.44
2023-05-16T10:11:00.915Z,79.82
2023-05-16T10:12:00.900Z,80.83
2023-05-16T10:13:00.922Z,84.44
2023-05-16T10:14:00.898Z,86.30
2023-05-16T10:15:00.894Z,90.28
2023-05-16T10:16:00.959Z,97.27
2023-05-16T10:17:00.930Z,104.75
2023-05-16T10:18:00.998Z,113.00
2023-05-16T10:19:01.057Z,110.34
2023-05-16T10:20:01.463Z,118.32
2023-05-16T10:21:01.047Z,128.74
2023-05-16T10:22:01.141Z,127.03
2023-05-16T10:23:01.107Z,128.32
2023-05-16T10:24:01.146Z,134.04
2023-05-16T10:25:01.464Z,143.83
2023-05-16T10:26:01.483Z,150.11
2023-05-16T10:27:01.255Z,154.03
2023-05-16T10:28:01.320Z,162.30
2023-05-16T10:29:01.427Z,164.68
2023-05-16T10:30:01.308Z,167.68
2023-05-16T10:31:01.589Z,176.52
2023-05-16T10:32:01.412Z,183.34
2023-05-16T10:33:01.470Z,187.13
2023-05-16T10:34:01.460Z,191.39
2023-05-16T10:35:01.504Z,194.78
2023-05-16T10:36:02.946Z,199.01
2023-05-16T10:37:01.581Z,203.52
2023-05-16T10:38:01.601Z,205.82
2023-05-16T10:39:01.626Z,208.74
2023-05-16T10:40:01.655Z,211.20
2023-05-16T10:41:01.685Z,212.21
2023-05-16T10:42:01.937Z,214.00
2023-05-16T10:43:01.770Z,215.07
2023-05-16T10:44:01.817Z,219.94
2023-05-16T10:45:05.469Z,221.44
2023-05-16T10:46:02.490Z,225.39
2023-05-16T10:47:02.005Z,226.85
2023-05-16T10:48:01.913Z,228.50
2023-05-16T10:49:01.939Z,230.71
2023-05-16T10:50:01.935Z,235.33
2023-05-16T10:51:02.081Z,238.59
2023-05-16T10:52:01.836Z,239.11
2023-05-16T10:53:01.922Z,235.84
2023-05-16T10:54:01.816Z,233.00
2023-05-16T10:55:01.797Z,229.35
2023-05-16T10:56:01.903Z,214.34
2023-05-16T10:57:01.801Z,212.91
2023-05-16T10:58:01.782Z,208.09
2023-05-16T10:59:01.780Z,202.89
2023-05-16T11:00:01.953Z,201.73
2023-05-16T11:01:02.816Z,202.33
2023-05-16T11:02:02.086Z,204.98
2023-05-16T11:03:01.847Z,209.64
2023-05-16T11:04:02.011Z,213.34
2023-05-16T11:05:01.773Z,215.88
2023-05-16T11:06:01.963Z,217.95
2023-05-16T11:07:01.959Z,216.74
2023-05-16T11:08:01.718Z,210.72
2023-05-16T11:09:01.694Z,206.64
2023-05-16T11:10:01.685Z,202.80
2023-05-16T11:11:01.717Z,198.03
2023-05-16T11:12:01.677Z,197.22
2023-05-16T11:13:01.704Z,194.56
2023-05-16T11:14:01.756Z,172.76
2023-05-16T11:15:01.825Z,158.13
2023-05-16T11:16:01.818Z,149.62
2023-05-16T11:17:01.993Z,139.95
2023-05-16T11:18:01.929Z,124.92
2023-05-16T11:19:01.942Z,129.39
2023-05-16T11:20:01.927Z,112.95
2023-05-16T11:21:01.959Z,119.17
2023-05-16T11:22:02.473Z,108.25
2023-05-16T11:23:02.040Z,93.86
2023-05-16T11:24:02.104Z,81.09
2023-05-16T11:25:02.171Z,66.96
2023-05-16T11:26:02.175Z,53.91
2023-05-16T11:27:02.492Z,56.73
2023-05-16T11:28:02.261Z,49.43
2023-05-16T11:29:02.314Z,48.07
2023-05-16T11:30:03.995Z,41.36
2023-05-16T11:31:02.429Z,35.56
2023-05-16T11:32:02.626Z,36.53
2023-05-16T11:33:02.661Z,36.32
2023-05-16T11:34:02.726Z,40.03
2023-05-16T11:35:02.552Z,39.66
2023-05-16T11:36:14.463Z,38.26
2023-05-16T11:37:03.616Z,38.34
2023-05-16T11:38:02.619Z,38.33
2023-05-16T11:39:02.587Z,38.63
2023-05-16T11:40:02.783Z,39.29
2023-05-16T11:41:02.581Z,39.89
2023-05-16T11:42:02.575Z,41.11
2023-05-16T11:43:02.925Z,39.84
2023-05-16T11:44:02.577Z,41.04
2023-05-16T11:45:02.574Z,41.97
2023-05-16T11:46:02.588Z,41.09
2023-05-16T11:47:02.721Z,41.21
2023-05-16T11:48:02.666Z,40.24
2023-05-16T11:49:02.619Z,40.99
2023-05-16T11:50:02.729Z,42.15
2023-05-16T11:51:02.709Z,41.60
2023-05-16T11:52:02.758Z,43.17
2023-05-16T11:53:02.803Z,43.39
2023-05-16T11:54:02.829Z,40.52
2023-05-16T11:55:02.818Z,41.11
2023-05-16T11:56:02.858Z,42.27
2023-05-16T11:57:02.911Z,42.74
2023-05-16T11:58:02.926Z,41.90
2023-05-16T11:59:02.952Z,40.42
2023-05-16T12:00:02.970Z,40.73
2023-05-16T12:01:03.005Z,39.78
2023-05-16T12:02:03.061Z,39.36
2023-05-16T12:03:03.173Z,37.82
2023-05-16T12:04:03.279Z,31.97
2023-05-16T12:05:03.185Z,34.04
2023-05-16T12:06:03.185Z,37.62
2023-05-16T12:07:03.117Z,38.20
2023-05-16T12:08:03.154Z,45.31
2023-05-16T12:09:03.174Z,43.78
2023-05-16T12:10:03.187Z,39.61
2023-05-16T12:11:03.205Z,39.12
2023-05-16T12:12:03.225Z,35.17
2023-05-16T12:13:03.274Z,32.02
2023-05-16T12:14:03.302Z,28.12
2023-05-16T12:15:03.324Z,33.46
2023-05-16T12:16:03.382Z,33.00
2023-05-16T12:17:03.501Z,31.61
2023-05-16T12:18:03.606Z,30.62
2023-05-16T12:19:03.492Z,34.40
2023-05-16T12:20:03.479Z,31.73
2023-05-16T12:21:03.528Z,30.13
2023-05-16T12:22:03.619Z,34.59
2023-05-16T12:23:03.548Z,34.60
2023-05-16T12:24:03.562Z,34.81
2023-05-16T12:25:03.603Z,35.98
2023-05-16T12:26:03.615Z,34.51
2023-05-16T12:27:03.696Z,30.27
2023-05-16T12:28:03.746Z,30.03
2023-05-16T12:29:03.740Z,31.66
2023-05-16T12:30:03.715Z,34.36
2023-05-16T12:31:03.737Z,34.39
2023-05-16T12:32:03.794Z,38.14
2023-05-16T12:33:06.995Z,31.30
2023-05-16T12:34:03.817Z,31.36
2023-05-16T12:35:03.803Z,31.67
2023-05-16T12:36:03.791Z,32.01
2023-05-16T12:37:03.800Z,31.61
2023-05-16T12:38:03.772Z,31.06